Airfield :
LOGIN :

Register | Disclaimer

   EN    FR    IT 

 










Legend :    VFR   Marginal VFR   IFR   Intensive IFR   Very Intensive IFR
Visi :
Ceiling :
>= 8 km
>= 3000ft
5 to 8 km
1000 to 3000 ft
1500m to 5 km
500 to 1000 ft
800 to 1500m
200 to 500 ft
< 800m
< 200 ft
Symbols :   Thunderstorms  Fog  Heavy snow  Heavy precipitations  Wind > 20 kt
SIGMETs :     Misc.  Thunderstorms  Icing  Turbulence  Mountain Waves  Volcanic Ashes






- Airport Elevation : 1140 ft
- IATA code : VHM


ESNV - Vilhelmina

CURRENT METAR :
  • 071520Z 26013KT 240V300 9999 OVC046 14/03 Q1014

EXPIRED METARs :
  • 071450Z 27011KT 9999 BKN048 14/03 Q1014
  • 071420Z 27012KT 250V310 9999 BKN049 14/03 Q1014
  • 071350Z AUTO 27012KT 9999 SCT043/// OVC056/// 14/03 Q1014
  • 071320Z AUTO 26013KT 9999 OVC051/// 15/03 Q1014
  • 071250Z AUTO 26010KT 9999 OVC048/// 14/04 Q1014

TAF N/A



MET'MAP, your aeronautical weather chart ! - Copyright ORBIFLY December 2007 - Disclaimer

ORBIFLY MET'MAP TEAM :

Programming & Development : Alexandra Zaïnal
Original concept : Baudouin d'Aumeries
Technical & hardware support : Manuel Goepfert
Assistance : Marc-Olivier Méhu




SOURCES & CREDITS :

   NOAA